Dallas, Texas
Traffic Map
Current Weather Conditions
Dallas, Texas
Scattered Clouds
Scattered Clouds
17°
Feels Like: 17°
Wind Chill: 17° Ceiling: Unl
Heat Index: 17° Visibility: 10mi
Dew Point: 14° Wind: 0mph
Humidity: 86% Direction: ° ()
Pressure: 30.04in Gusts: 0mph
Raw Report DataKDAL 210853Z 00000KT 10SM SCT300 17/14 A3004 RMK AO2 SLP166 T01670144 56002
Traffic Incident Summary
Active as of:
Severity:
Category:
InformationThere was an issue retrieving the traffic information for this location. Please try a different location or try again shortly.
Advertisements
Track Severe Weather on mobile